Time;durP1;ratioP1;P1;durP2;ratioP2;P2;SDS_P1;SDS_P2;PMS_P1;PMS_P2;Temp;Humidity;BMP_temperature;BMP_pressure;BME280_temperature;BME280_humidity;BME280_pressure;Samples;Min_cycle;Max_cycle;Signal;HPM_P1;HPM_P2
2022/06/12 00:00:31;;;;;;;6.22;2.20;;;;;;;19.83;55.87;101612.56;5026722;28;20057;-67
2022/06/12 00:03:00;;;;;;;5.45;2.40;;;;;;;19.49;57.27;101613.41;5024091;28;20072;-67
2022/06/12 00:05:30;;;;;;;4.78;2.50;;;;;;;19.10;58.19;101620.69;5024750;28;20045;-67
2022/06/12 00:07:56;;;;;;;3.88;2.35;;;;;;;18.61;60.60;101618.06;5027268;28;20049;-67
2022/06/12 00:10:22;;;;;;;4.57;2.95;;;;;;;18.33;63.05;101611.16;5025100;28;20063;-67
2022/06/12 00:12:49;;;;;;;4.65;3.00;;;;;;;18.38;63.73;101614.34;5024980;28;20131;-67
2022/06/12 00:15:20;;;;;;;5.78;3.25;;;;;;;18.75;63.13;101619.75;5027539;28;20473;-67
2022/06/12 00:17:46;;;;;;;3.60;2.83;;;;;;;19.02;62.07;101627.53;5026202;28;20064;-67
2022/06/12 00:20:17;;;;;;;5.22;3.22;;;;;;;19.18;61.54;101634.25;5025240;28;20125;-67
2022/06/12 00:22:44;;;;;;;9.43;3.90;;;;;;;19.74;60.22;101629.19;5032532;28;20422;-67
2022/06/12 00:25:13;;;;;;;5.65;3.60;;;;;;;18.82;62.88;101624.50;5031621;28;20061;-67
2022/06/12 00:27:40;;;;;;;5.47;3.40;;;;;;;18.74;63.43;101626.84;5024332;28;20054;-67
2022/06/12 00:30:10;;;;;;;4.45;3.30;;;;;;;19.02;62.37;101627.53;5025463;28;20045;-68
2022/06/12 00:32:37;;;;;;;4.45;3.72;;;;;;;18.80;63.51;101625.56;5026662;28;20049;-67
2022/06/12 00:35:07;;;;;;;5.95;3.50;;;;;;;19.20;62.65;101627.03;5025062;28;20468;-67
2022/06/12 00:37:36;;;;;;;6.72;3.63;;;;;;;19.35;61.87;101627.72;5025988;28;20064;-67
2022/06/12 00:40:05;;;;;;;4.45;3.45;;;;;;;19.67;60.93;101618.19;5028673;28;20061;-67
2022/06/12 00:42:35;;;;;;;11.23;3.58;;;;;;;19.96;60.12;101615.09;5024279;28;20045;-67
2022/06/12 00:45:23;;;;;;;5.20;3.80;;;;;;;19.87;59.85;101608.69;5025932;28;20079;-67
2022/06/12 00:47:50;;;;;;;5.35;3.60;;;;;;;19.46;61.97;101608.31;5027735;28;20045;-67
2022/06/12 00:50:16;;;;;;;4.28;3.28;;;;;;;19.11;62.86;101619.72;5028054;28;20519;-67
2022/06/12 00:52:49;;;;;;;5.60;4.07;;;;;;;19.42;61.99;101613.88;5025755;28;20053;-67
2022/06/12 00:55:24;;;;;;;4.95;3.38;;;;;;;19.56;61.71;101599.53;5024529;28;20103;-67
2022/06/12 00:57:50;;;;;;;8.18;3.40;;;;;;;19.68;60.56;101593.28;5026083;28;20045;-67
2022/06/12 01:00:17;;;;;;;6.13;3.40;;;;;;;19.65;60.44;101598.00;5024788;28;20037;-66
2022/06/12 01:02:44;;;;;;;5.22;3.50;;;;;;;19.20;62.13;101604.91;5024727;28;20509;-66
2022/06/12 01:08:08;;;;;;;5.05;3.50;;;;;;;18.99;62.81;101598.53;5024445;28;20564;-67
2022/06/12 01:10:39;;;;;;;4.18;3.28;;;;;;;19.03;62.40;101598.16;5022470;28;20095;-67
2022/06/12 01:13:16;;;;;;;4.15;3.75;;;;;;;19.25;61.40;101598.28;5025792;28;20111;-67
2022/06/12 01:15:46;;;;;;;5.80;3.65;;;;;;;19.15;62.12;101596.41;5025696;28;20045;-67
2022/06/12 01:18:16;;;;;;;6.28;3.33;;;;;;;18.92;61.95;101593.63;5025668;28;20049;-67
2022/06/12 01:20:48;;;;;;;5.47;3.30;;;;;;;18.58;62.06;101598.84;5024331;28;20049;-67
2022/06/12 01:23:45;;;;;;;8.27;3.03;;;;;;;18.46;62.28;101600.53;5024335;28;20041;-67
2022/06/12 01:26:34;;;;;;;4.18;3.08;;;;;;;18.68;61.80;101591.91;5020663;28;20041;-67
2022/06/12 01:29:08;;;;;;;6.38;2.92;;;;;;;18.86;61.27;101591.44;5024617;28;20045;-67
2022/06/12 01:31:44;;;;;;;4.47;3.03;;;;;;;18.79;61.35;101597.31;5023832;28;20110;-67
2022/06/12 01:34:24;;;;;;;4.28;2.78;;;;;;;18.57;60.79;101600.66;5024711;28;20135;-67
2022/06/12 01:36:58;;;;;;;9.02;3.55;;;;;;;18.65;60.56;101605.44;5024001;28;20053;-67
2022/06/12 01:39:37;;;;;;;9.15;2.83;;;;;;;17.90;63.81;101599.19;5024442;28;20065;-67
2022/06/12 01:42:12;;;;;;;5.25;3.30;;;;;;;17.98;63.56;101599.50;5024718;28;20489;-67
2022/06/12 01:44:45;;;;;;;8.50;3.10;;;;;;;17.69;64.57;101608.59;5026197;28;20052;-67
2022/06/12 01:47:20;;;;;;;7.18;3.08;;;;;;;16.72;67.69;101599.97;5039444;28;20558;-67
2022/06/12 01:49:55;;;;;;;5.85;3.00;;;;;;;16.94;68.03;101604.72;5028035;28;20561;-67
2022/06/12 01:52:28;;;;;;;7.72;3.85;;;;;;;17.17;68.10;101600.59;5041306;28;20037;-67
2022/06/12 01:55:02;;;;;;;8.23;3.30;;;;;;;17.53;66.31;101596.34;5015634;28;20057;-67
2022/06/12 01:57:33;;;;;;;4.85;3.25;;;;;;;17.18;67.05;101587.25;5024243;28;20525;-67
2022/06/12 02:00:06;;;;;;;4.57;3.28;;;;;;;16.73;69.92;101590.22;5023753;28;20574;-67
2022/06/12 02:02:37;;;;;;;9.60;4.00;;;;;;;17.11;69.37;101585.91;5024527;28;20115;-67
2022/06/12 02:05:10;;;;;;;6.03;4.18;;;;;;;17.18;69.36;101579.28;5030601;28;20064;-67
2022/06/12 02:07:42;;;;;;;6.90;3.50;;;;;;;17.42;68.19;101579.44;5026459;28;20046;-67
2022/06/12 02:10:12;;;;;;;8.45;3.13;;;;;;;17.40;68.16;101576.91;5024900;28;20049;-67
2022/06/12 02:15:33;;;;;;;8.30;3.75;;;;;;;16.71;70.89;101584.16;5033741;28;20048;-67
2022/06/12 02:18:04;;;;;;;11.85;3.90;;;;;;;17.20;69.33;101574.72;5023840;28;20054;-67
2022/06/12 02:20:36;;;;;;;6.90;3.78;;;;;;;17.64;67.45;101577.09;5024233;28;20037;-67
2022/06/12 02:23:08;;;;;;;5.72;3.58;;;;;;;17.78;67.14;101573.47;5023047;28;20068;-67
2022/06/12 02:25:39;;;;;;;6.53;3.80;;;;;;;17.81;67.07;101570.66;5033046;28;20077;-67
2022/06/12 02:28:12;;;;;;;4.25;3.65;;;;;;;17.46;68.45;101570.34;5025876;28;20073;-67
2022/06/12 02:30:43;;;;;;;7.35;3.85;;;;;;;17.61;67.54;101569.34;5041814;28;20224;-67
2022/06/12 02:33:15;;;;;;;6.17;3.97;;;;;;;17.29;68.93;101579.44;5043469;28;20099;-67
2022/06/12 02:35:45;;;;;;;6.05;4.00;;;;;;;17.36;68.91;101575.44;5024638;28;20284;-66
2022/06/12 02:38:17;;;;;;;4.45;3.38;;;;;;;17.53;68.31;101572.47;5027184;28;20413;-66
2022/06/12 02:40:49;;;;;;;6.05;3.95;;;;;;;17.71;67.51;101573.06;5023912;28;20054;-66
2022/06/12 02:43:21;;;;;;;7.18;4.40;;;;;;;17.84;66.53;101565.13;5026847;28;20121;-66
2022/06/12 02:45:55;;;;;;;10.18;4.03;;;;;;;17.86;67.24;101577.31;5026331;28;20045;-66
2022/06/12 02:48:23;;;;;;;7.75;4.03;;;;;;;17.27;68.02;101568.06;5023861;28;20508;-66
2022/06/12 02:50:55;;;;;;;4.93;3.38;;;;;;;17.22;66.97;101572.00;5024263;28;20064;-66
2022/06/12 02:53:32;;;;;;;4.55;3.40;;;;;;;17.61;65.45;101568.50;5028635;28;20483;-66
2022/06/12 02:56:04;;;;;;;5.43;3.33;;;;;;;17.65;65.16;101575.28;5031442;28;20052;-66
2022/06/12 02:58:38;;;;;;;9.18;3.90;;;;;;;17.68;64.40;101578.59;5030322;28;20497;-66
2022/06/12 03:01:10;;;;;;;4.32;3.42;;;;;;;17.64;64.78;101581.53;5038739;28;20148;-66
2022/06/12 03:03:43;;;;;;;8.52;3.72;;;;;;;17.50;65.13;101582.44;5015389;28;20055;-66
2022/06/12 03:06:11;;;;;;;6.82;3.60;;;;;;;17.45;65.38;101593.34;5021852;28;20087;-66
2022/06/12 03:08:42;;;;;;;4.85;3.55;;;;;;;17.09;66.38;101585.19;5022114;28;20042;-66
2022/06/12 03:11:11;;;;;;;6.10;3.80;;;;;;;17.36;65.58;101582.53;5035134;28;20048;-66
2022/06/12 03:13:39;;;;;;;10.05;4.10;;;;;;;17.31;66.63;101588.13;5030987;28;20134;-66
2022/06/12 03:16:16;;;;;;;7.38;3.80;;;;;;;17.27;67.26;101580.47;5025822;28;20050;-66
2022/06/12 03:18:49;;;;;;;7.60;3.85;;;;;;;17.60;65.62;101578.25;5026090;28;20567;-66
2022/06/12 03:21:24;;;;;;;6.43;3.97;;;;;;;17.61;65.93;101574.66;5028141;28;20045;-66
2022/06/12 03:24:05;;;;;;;8.80;4.30;;;;;;;17.92;64.71;101576.06;5030080;28;20103;-66
2022/06/12 03:26:40;;;;;;;9.15;4.95;;;;;;;17.74;66.12;101579.94;5016588;28;20525;-66
2022/06/12 03:29:17;;;;;;;7.55;4.72;;;;;;;17.52;66.97;101586.69;5024288;28;20073;-68
2022/06/12 03:31:55;;;;;;;6.45;4.47;;;;;;;17.83;66.01;101582.84;5028420;28;20599;-67
2022/06/12 03:34:32;;;;;;;11.45;4.70;;;;;;;18.11;65.13;101581.75;5039616;28;20063;-67
2022/06/12 03:37:06;;;;;;;8.10;4.55;;;;;;;17.83;65.73;101600.56;5027624;28;20053;-67
2022/06/12 03:39:40;;;;;;;8.38;4.75;;;;;;;18.20;64.52;101609.47;5026543;28;20057;-67
2022/06/12 03:42:18;;;;;;;7.70;4.03;;;;;;;18.27;64.29;101616.91;5041742;28;20048;-67
2022/06/12 03:44:54;;;;;;;6.28;4.50;;;;;;;18.66;63.65;101607.13;5034764;28;20504;-68
2022/06/12 03:47:32;;;;;;;4.95;4.38;;;;;;;18.26;65.17;101617.00;5026789;28;20580;-67
2022/06/12 03:50:05;;;;;;;8.00;4.90;;;;;;;18.29;65.25;101615.00;5030273;28;20131;-67
2022/06/12 03:52:43;;;;;;;7.25;4.72;;;;;;;18.22;66.39;101605.75;5026959;28;20045;-67
2022/06/12 03:55:14;;;;;;;7.43;4.50;;;;;;;18.53;65.89;101603.63;5034590;28;20107;-67
2022/06/12 03:57:51;;;;;;;7.20;4.65;;;;;;;18.70;65.24;101605.94;5029303;28;20057;-67
2022/06/12 04:00:23;;;;;;;6.50;4.28;;;;;;;18.61;66.05;101615.41;5026508;28;20041;-67
2022/06/12 04:02:55;;;;;;;6.07;4.63;;;;;;;18.74;65.72;101618.03;5026361;28;20054;-67
2022/06/12 04:05:26;;;;;;;6.20;4.50;;;;;;;18.79;65.05;101618.56;5023497;28;20048;-67
2022/06/12 04:07:56;;;;;;;6.95;4.38;;;;;;;18.80;64.92;101612.28;5026488;28;20061;-67
2022/06/12 04:10:27;;;;;;;6.32;4.47;;;;;;;19.05;64.05;101609.53;5034037;28;20052;-67
2022/06/12 04:12:54;;;;;;;7.28;5.18;;;;;;;19.09;64.93;101605.69;5046605;28;20045;-67
2022/06/12 04:15:25;;;;;;;6.80;4.40;;;;;;;18.83;66.04;101615.56;5040448;28;20044;-67
2022/06/12 04:17:55;;;;;;;6.53;4.60;;;;;;;19.16;64.73;101622.91;5047728;28;20417;-67
2022/06/12 04:20:29;;;;;;;8.25;4.57;;;;;;;19.62;63.51;101617.66;5038417;28;20130;-67
2022/06/12 04:23:01;;;;;;;5.47;4.05;;;;;;;19.84;62.82;101614.25;5044103;28;20440;-67
2022/06/12 04:25:34;;;;;;;5.75;4.00;;;;;;;20.21;62.02;101604.25;5032270;28;20045;-67
2022/06/12 04:28:02;;;;;;;6.47;4.47;;;;;;;20.09;62.14;101608.72;5024599;28;20429;-67
2022/06/12 04:30:31;;;;;;;7.80;4.10;;;;;;;19.97;62.40;101609.66;5030765;28;20069;-67
2022/06/12 04:33:19;;;;;;;7.07;3.97;;;;;;;19.90;64.15;101606.63;5027226;28;20049;-66
2022/06/12 04:35:50;;;;;;;5.88;3.65;;;;;;;19.57;64.55;101611.88;5041992;28;20107;-67
2022/06/12 04:38:17;;;;;;;7.80;3.97;;;;;;;19.61;64.30;101615.16;5029770;28;20045;-66
2022/06/12 04:40:43;;;;;;;8.20;4.10;;;;;;;19.12;65.98;101617.91;5028627;28;20295;-66
2022/06/12 04:43:09;;;;;;;4.75;3.45;;;;;;;19.10;66.51;101615.38;5045942;28;20715;-66
2022/06/12 04:45:36;;;;;;;7.43;3.80;;;;;;;19.16;66.66;101622.91;5032807;28;20057;-66
2022/06/12 04:48:05;;;;;;;5.85;3.80;;;;;;;18.85;67.37;101610.13;5041947;28;20115;-66
2022/06/12 04:50:31;;;;;;;6.38;3.80;;;;;;;18.84;67.39;101617.28;5031378;28;20440;-66
2022/06/12 04:52:58;;;;;;;5.68;4.20;;;;;;;18.79;67.79;101618.56;5026985;28;20046;-66
2022/06/12 04:55:24;;;;;;;8.15;4.75;;;;;;;18.37;68.37;101612.66;5037316;28;20045;-66
2022/06/12 04:57:50;;;;;;;7.07;4.97;;;;;;;18.31;69.11;101615.75;5044235;28;20049;-66
2022/06/12 05:00:18;;;;;;;9.35;4.80;;;;;;;18.49;68.45;101618.91;5026721;28;20489;-67
2022/06/12 05:02:45;;;;;;;7.55;4.88;;;;;;;18.73;68.19;101619.88;5024910;28;20514;-66
2022/06/12 05:05:12;;;;;;;9.35;5.20;;;;;;;18.94;66.97;101623.63;5030499;28;20091;-66
2022/06/12 05:07:39;;;;;;;7.15;5.03;;;;;;;19.43;65.62;101620.91;5028983;28;20095;-66
2022/06/12 05:10:06;;;;;;;7.03;5.18;;;;;;;19.84;63.88;101615.06;5025317;28;20057;-66
2022/06/12 05:12:33;;;;;;;9.77;4.93;;;;;;;20.13;63.40;101620.00;5030828;28;20063;-66
2022/06/12 05:14:59;;;;;;;11.77;5.30;;;;;;;20.18;62.75;101621.31;5030130;28;20063;-66
2022/06/12 05:17:27;;;;;;;8.40;5.43;;;;;;;20.30;62.26;101619.53;5024282;28;20414;-66
2022/06/12 05:19:53;;;;;;;11.68;5.60;;;;;;;20.42;62.44;101628.38;5023873;28;20049;-66
2022/06/12 05:22:23;;;;;;;6.28;4.93;;;;;;;20.49;62.46;101626.94;5025942;28;20041;-66
2022/06/12 05:24:50;;;;;;;5.55;4.95;;;;;;;20.47;63.29;101626.22;5024038;28;20398;-66
2022/06/12 05:27:20;;;;;;;11.60;5.20;;;;;;;20.29;63.36;101624.00;5023175;28;20111;-66
2022/06/12 05:29:47;;;;;;;7.03;5.50;;;;;;;20.44;62.58;101619.28;5025538;28;20049;-66
2022/06/12 05:32:17;;;;;;;5.97;4.65;;;;;;;20.64;62.32;101620.38;5024842;28;20045;-66
2022/06/12 05:34:44;;;;;;;10.77;4.80;;;;;;;20.54;62.74;101616.78;5024401;28;20049;-66
2022/06/12 05:37:13;;;;;;;7.15;4.32;;;;;;;20.68;61.67;101613.84;5025509;28;20046;-66
2022/06/12 05:39:41;;;;;;;6.90;4.30;;;;;;;20.40;63.03;101613.38;5024001;28;20069;-66
2022/06/12 05:42:08;;;;;;;9.07;4.65;;;;;;;20.45;62.79;101617.47;5024681;28;20065;-66
2022/06/12 05:44:35;;;;;;;8.95;4.22;;;;;;;20.46;63.40;101614.72;5025012;28;20494;-66
2022/06/12 05:47:02;;;;;;;8.50;4.97;;;;;;;20.68;62.20;101609.38;5025752;28;20087;-66
2022/06/12 05:49:29;;;;;;;6.97;4.85;;;;;;;21.07;61.05;101607.09;5025182;28;20053;-66
2022/06/12 05:51:56;;;;;;;5.93;4.28;;;;;;;20.76;62.14;101604.28;5025945;28;20045;-66
2022/06/12 05:54:22;;;;;;;6.13;4.50;;;;;;;20.37;63.46;101597.63;5024579;28;20144;-66
2022/06/12 05:56:50;;;;;;;6.70;4.32;;;;;;;21.16;60.54;101598.38;5023729;28;20053;-66
2022/06/12 05:59:16;;;;;;;7.63;4.05;;;;;;;20.68;62.41;101609.38;5024804;28;20042;-66
2022/06/12 06:01:43;;;;;;;10.10;4.30;;;;;;;20.57;63.08;101612.03;5024465;28;20057;-66
2022/06/12 06:04:10;;;;;;;6.20;4.30;;;;;;;20.82;61.66;101609.09;5024771;28;20436;-66
2022/06/12 06:06:41;;;;;;;6.07;4.35;;;;;;;21.38;60.20;101603.63;5024725;28;20049;-66
2022/06/12 06:09:08;;;;;;;10.27;4.63;;;;;;;21.12;61.29;101605.78;5023997;28;20053;-66
2022/06/12 06:11:34;;;;;;;10.15;4.38;;;;;;;21.34;60.12;101603.03;5025171;28;20076;-66
2022/06/12 06:14:02;;;;;;;7.70;4.40;;;;;;;21.79;59.45;101606.34;5023399;28;20041;-66
2022/06/12 06:16:30;;;;;;;10.13;4.30;;;;;;;22.57;56.93;101595.09;5025901;28;20107;-65
2022/06/12 06:18:56;;;;;;;7.60;4.00;;;;;;;22.62;59.11;101595.50;5023938;28;20136;-65
2022/06/12 06:21:23;;;;;;;8.25;4.60;;;;;;;23.42;55.99;101594.56;5023415;28;20111;-65
2022/06/12 06:23:49;;;;;;;5.43;3.60;;;;;;;24.26;55.17;101590.19;5026124;28;20584;-65
2022/06/12 06:26:16;;;;;;;7.60;4.15;;;;;;;24.82;55.81;101593.56;5024116;28;20508;-65
2022/06/12 06:28:43;;;;;;;4.65;2.90;;;;;;;24.70;53.71;101590.25;5022217;28;20045;-66
2022/06/12 06:31:11;;;;;;;5.10;3.25;;;;;;;24.88;51.81;101593.00;5024869;28;20045;-66
2022/06/12 06:33:38;;;;;;;4.65;3.30;;;;;;;24.90;51.98;101598.22;5023887;28;20064;-66
2022/06/12 06:36:05;;;;;;;4.05;3.20;;;;;;;24.99;51.41;101592.78;5023279;28;20050;-66
2022/06/12 06:38:32;;;;;;;7.80;3.58;;;;;;;24.96;51.56;101592.25;5025312;28;20041;-66
2022/06/12 06:40:58;;;;;;;5.68;3.10;;;;;;;25.10;51.89;101600.63;5022864;28;20509;-66
2022/06/12 06:43:25;;;;;;;6.47;3.20;;;;;;;25.14;51.35;101599.31;5022862;28;20107;-66
2022/06/12 06:48:37;;;;;;;6.95;3.10;;;;;;;25.46;50.43;101590.69;5030269;28;20045;-66
2022/06/12 06:51:03;;;;;;;7.03;2.97;;;;;;;25.53;50.51;101594.50;5028058;28;20049;-66
2022/06/12 06:53:29;;;;;;;7.35;3.58;;;;;;;25.89;50.12;101591.75;5030915;28;20080;-70
2022/06/12 06:55:56;;;;;;;5.75;3.17;;;;;;;26.16;48.10;101597.78;5029194;28;20045;-67
2022/06/12 06:58:26;;;;;;;5.78;2.97;;;;;;;26.53;48.10;101599.38;5036731;28;20635;-67
2022/06/12 07:00:53;;;;;;;4.45;2.80;;;;;;;26.53;49.02;101591.28;5022729;28;20052;-67
2022/06/12 07:03:21;;;;;;;6.18;2.80;;;;;;;27.07;47.70;101603.41;5028708;28;20045;-67
2022/06/12 07:05:51;;;;;;;5.63;2.45;;;;;;;27.29;47.09;101597.38;5027161;28;20143;-67
2022/06/12 07:08:20;;;;;;;3.88;2.30;;;;;;;27.79;45.77;101591.84;5028008;28;20465;-67
2022/06/12 07:10:48;;;;;;;4.70;2.33;;;;;;;27.97;44.18;101597.06;5025415;28;20045;-67
2022/06/12 07:13:15;;;;;;;8.65;3.00;;;;;;;28.39;43.84;101591.38;5027432;28;20065;-67
2022/06/12 07:15:41;;;;;;;4.85;3.03;;;;;;;28.77;42.90;101587.88;5027961;28;20085;-67
2022/06/12 07:18:09;;;;;;;5.15;2.20;;;;;;;28.88;41.49;101582.06;5026236;28;20061;-68
2022/06/12 07:20:39;;;;;;;4.45;2.30;;;;;;;28.50;41.91;101583.75;5027893;28;20045;-67
2022/06/12 07:23:08;;;;;;;7.13;2.50;;;;;;;28.73;41.71;101585.69;5027985;28;20053;-67
2022/06/12 07:25:40;;;;;;;5.93;2.53;;;;;;;28.60;41.42;101586.25;5027535;28;20072;-67
2022/06/12 07:28:08;;;;;;;7.50;2.55;;;;;;;28.90;39.22;101587.28;5026333;28;20144;-67
2022/06/12 07:30:34;;;;;;;7.30;2.65;;;;;;;28.95;38.52;101590.31;5039065;28;20048;-67
2022/06/12 07:33:01;;;;;;;8.77;2.58;;;;;;;29.07;37.68;101579.94;5039048;28;20463;-68
2022/06/12 07:35:27;;;;;;;6.90;2.53;;;;;;;29.19;39.54;101592.00;5030255;28;20094;-67
2022/06/12 07:37:53;;;;;;;7.75;2.80;;;;;;;29.12;38.29;101589.16;5025575;28;20081;-67
2022/06/12 07:40:27;;;;;;;7.53;2.17;;;;;;;28.80;37.14;101595.63;5012803;28;20092;-67
2022/06/12 07:42:54;;;;;;;7.82;2.95;;;;;;;29.01;38.68;101587.72;5018713;28;20050;-67
2022/06/12 07:45:20;;;;;;;5.50;1.92;;;;;;;29.18;38.01;101590.31;5028893;28;20069;-68
2022/06/12 07:47:47;;;;;;;9.05;3.13;;;;;;;28.82;36.84;101593.59;5028421;28;20095;-68
2022/06/12 07:50:15;;;;;;;7.60;2.63;;;;;;;28.43;37.84;101593.56;5030006;28;20068;-68
2022/06/12 07:52:43;;;;;;;8.80;2.85;;;;;;;28.83;38.97;101600.66;5028126;28;20052;-68
2022/06/12 07:55:12;;;;;;;6.60;2.45;;;;;;;29.25;35.99;101597.53;5031336;28;20557;-67
2022/06/12 07:57:40;;;;;;;8.98;2.28;;;;;;;29.09;34.26;101594.09;5035166;28;20075;-67
2022/06/12 08:00:10;;;;;;;7.28;2.30;;;;;;;29.14;34.81;101599.78;5030043;28;20046;-68
2022/06/12 08:02:36;;;;;;;8.25;2.42;;;;;;;29.09;33.98;101597.63;5033841;28;20422;-67
2022/06/12 08:05:03;;;;;;;7.97;2.40;;;;;;;29.41;36.18;101591.19;5028750;28;20049;-67
2022/06/12 08:07:30;;;;;;;17.45;2.72;;;;;;;29.67;35.70;101594.34;5025986;28;20041;-67
2022/06/12 08:09:56;;;;;;;8.23;2.47;;;;;;;29.64;34.20;101596.59;5029749;28;20088;-67
2022/06/12 08:12:23;;;;;;;8.35;2.67;;;;;;;29.43;33.65;101598.09;5027920;28;20549;-67
2022/06/12 08:14:50;;;;;;;7.65;2.83;;;;;;;28.73;34.43;101597.34;5041727;28;20050;-67
2022/06/12 08:17:17;;;;;;;6.50;2.35;;;;;;;28.79;34.35;101604.72;5026991;28;20042;-68
2022/06/12 08:22:27;;;;;;;7.60;2.45;;;;;;;28.87;34.71;101603.84;5029684;28;20052;-67
2022/06/12 08:24:53;;;;;;;6.65;2.10;;;;;;;28.68;34.53;101613.22;5033103;28;20079;-68
2022/06/12 08:27:20;;;;;;;8.75;2.40;;;;;;;28.85;35.93;101611.28;5036407;28;20049;-68
2022/06/12 08:29:46;;;;;;;11.48;2.40;;;;;;;28.90;35.09;101608.88;5025721;28;20057;-68
2022/06/12 08:32:19;;;;;;;7.75;2.22;;;;;;;29.00;34.12;101610.38;5025349;28;20454;-68
2022/06/12 08:34:48;;;;;;;8.82;2.85;;;;;;;29.25;32.88;101611.03;5032676;28;20128;-68
2022/06/12 08:37:17;;;;;;;8.00;2.45;;;;;;;29.43;34.98;101618.88;5025287;28;20111;-68
2022/06/12 08:39:44;;;;;;;9.25;2.38;;;;;;;29.21;33.79;101609.72;5024400;28;20091;-67
2022/06/12 08:42:19;;;;;;;8.82;2.78;;;;;;;29.09;34.79;101610.28;5023491;28;20099;-65
2022/06/12 08:44:51;;;;;;;6.72;2.50;;;;;;;29.68;32.77;101609.53;5025515;28;20045;-65
2022/06/12 08:47:29;;;;;;;6.85;2.08;;;;;;;30.15;34.19;101598.44;5025808;28;20046;-65
2022/06/12 08:50:04;;;;;;;9.13;2.92;;;;;;;30.80;33.87;101603.06;5025502;28;20119;-65
2022/06/12 08:52:35;;;;;;;5.40;2.13;;;;;;;31.04;33.28;101604.63;5027237;28;20124;-65
2022/06/12 08:55:12;;;;;;;9.30;2.80;;;;;;;31.52;29.84;101605.72;5026439;28;20134;-64
2022/06/12 08:57:48;;;;;;;10.25;2.83;;;;;;;30.71;30.19;101615.06;5025501;28;20048;-64
2022/06/12 09:00:19;;;;;;;7.38;2.25;;;;;;;30.63;31.93;101602.47;5027783;28;20143;-64
2022/06/12 09:02:47;;;;;;;9.05;2.40;;;;;;;30.75;30.80;101606.34;5033291;28;20053;-64
2022/06/12 09:05:18;;;;;;;11.48;3.03;;;;;;;30.88;32.60;101606.50;5025217;28;20068;-64
2022/06/12 09:07:50;;;;;;;8.65;2.50;;;;;;;31.39;33.22;101603.72;5026214;28;20049;-64
2022/06/12 09:10:25;;;;;;;10.65;2.67;;;;;;;31.22;32.16;101603.16;5030998;28;20091;-65
2022/06/12 09:12:55;;;;;;;7.20;2.38;;;;;;;31.86;32.05;101606.66;5045446;28;20147;-65
2022/06/12 09:15:29;;;;;;;6.78;2.60;;;;;;;31.82;32.08;101597.22;5035264;28;20076;-65
2022/06/12 09:18:05;;;;;;;14.82;3.20;;;;;;;31.69;33.65;101594.44;5025579;28;20049;-65
2022/06/12 09:20:38;;;;;;;10.68;2.78;;;;;;;31.71;32.67;101586.09;5037576;28;20042;-65
2022/06/12 09:23:13;;;;;;;8.50;2.75;;;;;;;32.17;31.35;101583.72;5023981;28;20068;-64
2022/06/12 09:25:46;;;;;;;7.93;2.50;;;;;;;31.68;30.17;101581.06;5025535;28;20046;-64
2022/06/12 09:28:22;;;;;;;7.53;2.53;;;;;;;31.73;34.73;101584.88;5006202;28;20111;-65
2022/06/12 09:30:53;;;;;;;9.05;3.00;;;;;;;31.65;32.35;101589.59;5015865;28;20045;-65
2022/06/12 09:33:30;;;;;;;8.95;2.65;;;;;;;31.97;34.48;101585.44;5024783;28;20049;-65
2022/06/12 09:36:11;;;;;;;10.20;2.45;;;;;;;32.01;30.56;101571.28;5024727;28;20053;-64
2022/06/12 09:38:57;;;;;;;8.85;2.30;;;;;;;31.20;31.37;101586.25;5024045;28;20099;-65
2022/06/12 09:41:33;;;;;;;9.93;2.83;;;;;;;30.83;35.35;101584.56;5023467;28;20540;-65
2022/06/12 09:44:14;;;;;;;7.30;2.55;;;;;;;31.14;32.66;101581.63;5024800;28;20041;-65
2022/06/12 09:46:55;;;;;;;9.80;2.70;;;;;;;30.92;34.74;101579.88;5031140;28;20067;-64
2022/06/12 09:49:33;;;;;;;12.10;3.08;;;;;;;30.30;33.16;101574.91;5041071;28;20052;-64
2022/06/12 09:52:20;;;;;;;10.48;2.83;;;;;;;29.91;34.34;101574.34;5014155;28;20115;-65
2022/06/12 09:54:54;;;;;;;9.45;2.67;;;;;;;29.44;33.21;101572.75;5023198;28;20390;-64
2022/06/12 09:57:30;;;;;;;11.23;3.22;;;;;;;30.01;35.69;101571.41;5023587;28;20099;-65
2022/06/12 10:00:01;;;;;;;6.78;2.25;;;;;;;29.52;34.07;101569.16;5022748;28;20468;-64
2022/06/12 10:02:35;;;;;;;8.80;2.58;;;;;;;29.00;35.10;101559.06;5023924;28;20049;-64
2022/06/12 10:05:09;;;;;;;6.97;2.55;;;;;;;28.80;36.08;101571.31;5022028;28;20050;-64
2022/06/12 10:07:43;;;;;;;9.15;2.70;;;;;;;28.59;36.22;101560.28;5024730;28;20041;-64
2022/06/12 10:10:19;;;;;;;7.82;2.97;;;;;;;28.79;34.63;101555.28;5024762;28;20046;-65
2022/06/12 10:12:51;;;;;;;11.27;3.47;;;;;;;28.28;36.66;101562.09;5024649;28;20069;-64
2022/06/12 10:15:23;;;;;;;8.57;2.95;;;;;;;28.68;39.88;101545.75;5024649;28;20421;-64
2022/06/12 10:17:56;;;;;;;8.80;2.55;;;;;;;28.88;36.18;101549.69;5023506;28;20049;-64
2022/06/12 10:20:29;;;;;;;11.88;2.90;;;;;;;29.14;35.28;101537.69;5023051;28;20110;-65
2022/06/12 10:22:56;;;;;;;7.68;2.42;;;;;;;29.29;34.77;101541.31;5030171;28;20041;-64
2022/06/12 10:25:27;;;;;;;9.98;3.22;;;;;;;28.78;34.25;101543.69;5045008;28;20048;-65
2022/06/12 10:27:56;;;;;;;5.57;2.40;;;;;;;28.37;34.21;101543.03;5027469;28;20057;-65
2022/06/12 10:30:25;;;;;;;11.00;3.03;;;;;;;29.59;38.26;101540.38;5022507;28;20045;-64
2022/06/12 10:32:54;;;;;;;9.82;2.88;;;;;;;30.33;33.39;101538.53;5024324;28;20619;-64
2022/06/12 10:35:22;;;;;;;14.20;2.88;;;;;;;30.87;31.31;101531.72;5024301;28;20045;-64
2022/06/12 10:37:51;;;;;;;6.65;2.20;;;;;;;30.89;32.39;101536.94;5022754;28;20510;-64
2022/06/12 10:40:21;;;;;;;12.82;2.58;;;;;;;30.11;32.12;101525.97;5023559;28;20068;-64
2022/06/12 10:42:51;;;;;;;5.43;2.25;;;;;;;30.25;30.82;101527.81;5024081;28;20049;-65
2022/06/12 10:45:22;;;;;;;7.13;2.17;;;;;;;30.57;31.13;101526.56;5026926;28;20049;-65
2022/06/12 10:47:50;;;;;;;7.43;2.17;;;;;;;30.96;30.68;101526.16;5023116;28;20049;-65
2022/06/12 10:50:24;;;;;;;6.03;2.20;;;;;;;30.45;31.28;101520.81;5021767;28;20103;-65
2022/06/12 10:52:55;;;;;;;9.98;2.30;;;;;;;30.65;32.68;101512.91;5021743;28;20084;-65
2022/06/12 10:55:41;;;;;;;5.90;2.40;;;;;;;30.82;31.38;101511.66;5025140;28;20111;-65
2022/06/12 10:58:35;;;;;;;7.70;2.38;;;;;;;31.46;34.26;101501.63;5024366;28;20493;-65
2022/06/12 11:01:10;;;;;;;9.38;2.13;;;;;;;31.56;28.36;101510.28;5020964;28;20054;-65
2022/06/12 11:03:43;;;;;;;12.85;2.28;;;;;;;32.15;30.28;101504.41;5025401;28;20037;-65
2022/06/12 11:06:14;;;;;;;11.60;3.00;;;;;;;31.87;28.90;101504.44;5022773;28;20045;-65
2022/06/12 11:09:07;;;;;;;8.40;2.67;;;;;;;31.22;27.97;101504.78;5021734;28;20382;-65
2022/06/12 11:11:48;;;;;;;7.78;2.40;;;;;;;30.66;28.68;101495.66;5023118;28;20045;-64
2022/06/12 11:14:30;;;;;;;7.72;2.50;;;;;;;29.36;31.46;101488.22;5024557;28;20104;-64
2022/06/12 11:17:09;;;;;;;7.93;2.58;;;;;;;29.79;32.28;101495.53;5023493;28;20041;-64
2022/06/12 11:19:49;;;;;;;8.77;2.28;;;;;;;30.25;31.53;101492.66;5022381;28;20115;-64
2022/06/12 11:22:33;;;;;;;7.55;2.47;;;;;;;29.99;31.44;101487.75;5024519;28;20041;-64
2022/06/12 11:25:16;;;;;;;7.20;2.58;;;;;;;30.29;31.28;101486.69;5043452;28;20048;-64
2022/06/12 11:27:56;;;;;;;8.38;2.40;;;;;;;30.67;30.83;101483.81;5042781;28;20049;-64
2022/06/12 11:30:36;;;;;;;9.60;2.42;;;;;;;30.66;31.51;101485.66;5033341;28;20135;-64
2022/06/12 11:33:17;;;;;;;12.07;2.75;;;;;;;30.96;31.52;101482.84;5026408;28;20494;-64
2022/06/12 11:35:51;;;;;;;11.07;2.65;;;;;;;31.16;30.53;101481.16;5029505;28;20072;-64
2022/06/12 11:38:51;;;;;;;10.07;2.53;;;;;;;30.72;30.38;101482.19;5048264;28;20045;-64
2022/06/12 11:41:36;;;;;;;6.55;2.10;;;;;;;31.20;30.71;101474.31;5002247;28;20042;-64
2022/06/12 11:44:20;;;;;;;10.25;2.58;;;;;;;31.56;29.49;101468.78;5017596;28;20112;-64
2022/06/12 11:46:56;;;;;;;11.98;2.70;;;;;;;31.95;29.77;101458.16;5021342;28;20053;-63
2022/06/12 11:49:36;;;;;;;8.65;2.65;;;;;;;31.45;29.47;101463.88;5021718;28;20048;-64
2022/06/12 11:52:19;;;;;;;7.45;2.58;;;;;;;30.60;29.74;101467.47;5041961;28;20055;-63
2022/06/12 11:55:00;;;;;;;8.60;2.63;;;;;;;30.31;32.39;101471.06;5045560;28;20057;-63